Station Historical Data
Daily Summary for February 22, 2017 Units:  Both    English   Metric
« Previous Day
Next Day »
Daily Weekly Monthly Yearly Custom
  High: Low: Average:
Temperature: 59.4 °F /  15.2 °C 40.2 °F /  4.6 °C 50.8 °F /  10.4 °C
Dew Point: 52.0 °F /  11.1 °C 37.8 °F /  3.2 °C 45.9 °F /  7.7 °C
Humidity: 94% 64% 84%
Wind Speed: 8.0mph /  12.9km/h - 2mph /  3.2km/h
Wind Gust: 15.0mph /  24.1km/h - -
Wind- - SW
Pressure: 29.95 in /  1014.1 hPa 29.75 in /  1007.3 hPa -
Precipitation: 0.00 in /  0 mm    
Historical Graphs
 
 
Tabular Data for February 22, 2017
Time Temperature Dew Point Pressure Wind Wind Speed Wind Gust Humidity Rainfall Rate (Hourly)
00:04 46.0 °F /  7.8 °C 42.6 °F /  5.9 °C 29.95in /  1014.1hPa Calm     88% 0.00in /  0mm
00:09 46.0 °F /  7.8 °C 42.6 °F /  5.9 °C 29.95in /  1014.1hPa Calm     88% 0.00in /  0mm
00:14 46.0 °F /  7.8 °C 42.6 °F /  5.9 °C 29.95in /  1014.1hPa Calm     88% 0.00in /  0mm
00:19 46.1 °F /  7.8 °C 42.7 °F /  5.9 °C 29.95in /  1014.1hPa Calm     88% 0.00in /  0mm
00:24 46.2 °F /  7.9 °C 42.8 °F /  6 °C 29.95in /  1014.1hPa Calm     88% 0.00in /  0mm
00:29 46.3 °F /  7.9 °C 42.9 °F /  6.1 °C 29.95in /  1014.1hPa Calm     88% 0.00in /  0mm
00:34 46.4 °F /  8 °C 43.0 °F /  6.1 °C 29.95in /  1014.1hPa Calm     88% 0.00in /  0mm
00:39 46.5 °F /  8.1 °C 43.1 °F /  6.2 °C 29.95in /  1014.1hPa Calm     88% 0.00in /  0mm
00:44 46.5 °F /  8.1 °C 43.1 °F /  6.2 °C 29.95in /  1014.1hPa Calm     88% 0.00in /  0mm
00:49 46.4 °F /  8 °C 43.0 °F /  6.1 °C 29.95in /  1014.1hPa Calm     88% 0.00in /  0mm
00:54 46.5 °F /  8.1 °C 43.1 °F /  6.2 °C 29.95in /  1014.1hPa Calm     88% 0.00in /  0mm
00:59 46.5 °F /  8.1 °C 43.1 °F /  6.2 °C 29.95in /  1014.1hPa Calm     88% 0.00in /  0mm
01:04 46.6 °F /  8.1 °C 43.2 °F /  6.2 °C 29.94in /  1013.8hPa Calm     88% 0.00in /  0mm
01:09 46.5 °F /  8.1 °C 43.1 °F /  6.2 °C 29.94in /  1013.8hPa Calm     88% 0.00in /  0mm
01:14 46.5 °F /  8.1 °C 43.1 °F /  6.2 °C 29.94in /  1013.8hPa Calm     88% 0.00in /  0mm
01:19 46.6 °F /  8.1 °C 43.2 °F /  6.2 °C 29.94in /  1013.8hPa Calm     88% 0.00in /  0mm
01:24 46.5 °F /  8.1 °C 43.1 °F /  6.2 °C 29.94in /  1013.8hPa Calm     88% 0.00in /  0mm
01:29 46.5 °F /  8.1 °C 43.1 °F /  6.2 °C 29.93in /  1013.4hPa Calm     88% 0.00in /  0mm
01:34 46.2 °F /  7.9 °C 42.8 °F /  6 °C 29.93in /  1013.4hPa Calm     88% 0.00in /  0mm
01:39 45.9 °F /  7.7 °C 42.5 °F /  5.8 °C 29.93in /  1013.4hPa Calm     88% 0.00in /  0mm
01:44 45.6 °F /  7.6 °C 42.3 °F /  5.7 °C 29.93in /  1013.4hPa Calm     88% 0.00in /  0mm
01:49 45.2 °F /  7.3 °C 42.2 °F /  5.7 °C 29.93in /  1013.4hPa Calm     89% 0.00in /  0mm
01:54 44.9 °F /  7.2 °C 41.9 °F /  5.5 °C 29.93in /  1013.4hPa Calm     89% 0.00in /  0mm
01:59 44.9 °F /  7.2 °C 42.1 °F /  5.6 °C 29.93in /  1013.4hPa Calm     90% 0.00in /  0mm
02:04 44.9 °F /  7.2 °C 42.1 °F /  5.6 °C 29.93in /  1013.4hPa Calm     90% 0.00in /  0mm
02:09 44.5 °F /  6.9 °C 41.7 °F /  5.4 °C 29.92in /  1013.1hPa Calm     90% 0.00in /  0mm
02:14 44.1 °F /  6.7 °C 41.4 °F /  5.2 °C 29.93in /  1013.4hPa Calm     90% 0.00in /  0mm
02:19 43.7 °F /  6.5 °C 41.0 °F /  5 °C 29.92in /  1013.1hPa Calm     90% 0.00in /  0mm
02:24 43.5 °F /  6.4 °C 40.8 °F /  4.9 °C 29.93in /  1013.4hPa Calm     90% 0.00in /  0mm
02:29 43.5 °F /  6.4 °C 41.0 °F /  5 °C 29.93in /  1013.4hPa Calm     91% 0.00in /  0mm
02:34 43.4 °F /  6.3 °C 40.9 °F /  4.9 °C 29.93in /  1013.4hPa Calm     91% 0.00in /  0mm
02:39 43.4 °F /  6.3 °C 41.2 °F /  5.1 °C 29.93in /  1013.4hPa Calm     92% 0.00in /  0mm
02:44 43.2 °F /  6.2 °C 40.8 °F /  4.9 °C 29.93in /  1013.4hPa Calm     91% 0.00in /  0mm
02:49 43.3 °F /  6.3 °C 40.8 °F /  4.9 °C 29.93in /  1013.4hPa Calm     91% 0.00in /  0mm
02:54 43.2 °F /  6.2 °C 41.0 °F /  5 °C 29.92in /  1013.1hPa Calm     92% 0.00in /  0mm
02:59 43.1 °F /  6.2 °C 40.9 °F /  4.9 °C 29.93in /  1013.4hPa Calm     92% 0.00in /  0mm
03:04 43.0 °F /  6.1 °C 40.8 °F /  4.9 °C 29.92in /  1013.1hPa Calm     92% 0.00in /  0mm
03:09 42.6 °F /  5.9 °C 40.4 °F /  4.7 °C 29.92in /  1013.1hPa Calm     92% 0.00in /  0mm
03:14 42.6 °F /  5.9 °C 40.4 °F /  4.7 °C 29.92in /  1013.1hPa Calm     92% 0.00in /  0mm
03:19 42.6 °F /  5.9 °C 40.4 °F /  4.7 °C 29.92in /  1013.1hPa Calm     92% 0.00in /  0mm
03:24 42.2 °F /  5.7 °C 40.0 °F /  4.4 °C 29.92in /  1013.1hPa Calm     92% 0.00in /  0mm
03:29 41.6 °F /  5.3 °C 39.4 °F /  4.1 °C 29.92in /  1013.1hPa Calm     92% 0.00in /  0mm
03:34 41.4 °F /  5.2 °C 39.3 °F /  4.1 °C 29.92in /  1013.1hPa Calm     92% 0.00in /  0mm
03:39 41.3 °F /  5.2 °C 39.4 °F /  4.1 °C 29.92in /  1013.1hPa Calm     93% 0.00in /  0mm
03:44 41.1 °F /  5.1 °C 39.0 °F /  3.9 °C 29.93in /  1013.4hPa Calm     92% 0.00in /  0mm
03:49 41.7 °F /  5.4 °C 39.8 °F /  4.3 °C 29.92in /  1013.1hPa Calm     93% 0.00in /  0mm
03:54 41.7 °F /  5.4 °C 39.8 °F /  4.3 °C 29.92in /  1013.1hPa Calm     93% 0.00in /  0mm
03:59 41.7 °F /  5.4 °C 39.8 °F /  4.3 °C 29.92in /  1013.1hPa Calm     93% 0.00in /  0mm
04:04 41.9 °F /  5.5 °C 40.0 °F /  4.4 °C 29.92in /  1013.1hPa Calm     93% 0.00in /  0mm
04:09 41.9 °F /  5.5 °C 40.0 °F /  4.4 °C 29.92in /  1013.1hPa Calm     93% 0.00in /  0mm
04:14 41.9 °F /  5.5 °C 40.0 °F /  4.4 °C 29.93in /  1013.4hPa Calm     93% 0.00in /  0mm
04:19 41.9 °F /  5.5 °C 40.0 °F /  4.4 °C 29.93in /  1013.4hPa Calm     93% 0.00in /  0mm
04:24 41.6 °F /  5.3 °C 39.7 °F /  4.3 °C 29.92in /  1013.1hPa Calm     93% 0.00in /  0mm
04:29 41.7 °F /  5.4 °C 39.8 °F /  4.3 °C 29.92in /  1013.1hPa Calm     93% 0.00in /  0mm
04:34 41.9 °F /  5.5 °C 40.0 °F /  4.4 °C 29.92in /  1013.1hPa Calm     93% 0.00in /  0mm
04:39 41.8 °F /  5.4 °C 39.9 °F /  4.4 °C 29.92in /  1013.1hPa Calm     93% 0.00in /  0mm
04:44 41.7 °F /  5.4 °C 39.8 °F /  4.3 °C 29.92in /  1013.1hPa Calm     93% 0.00in /  0mm
04:49 41.3 °F /  5.2 °C 39.4 °F /  4.1 °C 29.92in /  1013.1hPa Calm     93% 0.00in /  0mm
04:54 41.4 °F /  5.2 °C 39.8 °F /  4.3 °C 29.92in /  1013.1hPa Calm     94% 0.00in /  0mm
04:59 41.6 °F /  5.3 °C 39.7 °F /  4.3 °C 29.92in /  1013.1hPa Calm     93% 0.00in /  0mm
05:04 41.8 °F /  5.4 °C 40.2 °F /  4.6 °C 29.92in /  1013.1hPa Calm   3.0mph /  4.8km/h 94% 0.00in /  0mm
05:09 41.9 °F /  5.5 °C 40.3 °F /  4.6 °C 29.92in /  1013.1hPa ESE 1.0mph /  1.6km/h 3.0mph /  4.8km/h 94% 0.00in /  0mm
05:14 42.3 °F /  5.7 °C 40.7 °F /  4.8 °C 29.91in /  1012.8hPa Calm     94% 0.00in /  0mm
05:19 42.4 °F /  5.8 °C 40.8 °F /  4.9 °C 29.91in /  1012.8hPa ESE 1.0mph /  1.6km/h 3.0mph /  4.8km/h 94% 0.00in /  0mm
05:24 42.6 °F /  5.9 °C 41.0 °F /  5 °C 29.91in /  1012.8hPa Calm   2.0mph /  3.2km/h 94% 0.00in /  0mm
05:29 42.6 °F /  5.9 °C 40.7 °F /  4.8 °C 29.91in /  1012.8hPa Calm     93% 0.00in /  0mm
05:34 42.4 °F /  5.8 °C 40.5 °F /  4.7 °C 29.91in /  1012.8hPa Calm     93% 0.00in /  0mm
05:39 42.3 °F /  5.7 °C 40.4 °F /  4.7 °C 29.91in /  1012.8hPa Calm     93% 0.00in /  0mm
05:44 42.0 °F /  5.6 °C 40.1 °F /  4.5 °C 29.91in /  1012.8hPa Calm     93% 0.00in /  0mm
05:49 41.7 °F /  5.4 °C 39.8 °F /  4.3 °C 29.92in /  1013.1hPa Calm     93% 0.00in /  0mm
05:54 41.6 °F /  5.3 °C 39.7 °F /  4.3 °C 29.91in /  1012.8hPa Calm     93% 0.00in /  0mm
05:59 41.6 °F /  5.3 °C 39.7 °F /  4.3 °C 29.91in /  1012.8hPa Calm     93% 0.00in /  0mm
06:04 41.4 °F /  5.2 °C 39.5 °F /  4.2 °C 29.92in /  1013.1hPa Calm     93% 0.00in /  0mm
06:09 41.0 °F /  5 °C 38.9 °F /  3.8 °C 29.91in /  1012.8hPa Calm     92% 0.00in /  0mm
06:14 41.1 °F /  5.1 °C 39.2 °F /  4 °C 29.91in /  1012.8hPa Calm     93% 0.00in /  0mm
06:19 40.9 °F /  4.9 °C 38.8 °F /  3.8 °C 29.91in /  1012.8hPa Calm     92% 0.00in /  0mm
06:24 40.7 °F /  4.8 °C 38.6 °F /  3.7 °C 29.91in /  1012.8hPa Calm     92% 0.00in /  0mm
06:29 40.7 °F /  4.8 °C 38.8 °F /  3.8 °C 29.91in /  1012.8hPa Calm     93% 0.00in /  0mm
06:34 40.7 °F /  4.8 °C 38.8 °F /  3.8 °C 29.91in /  1012.8hPa Calm     93% 0.00in /  0mm
06:39 41.3 °F /  5.2 °C 39.4 °F /  4.1 °C 29.91in /  1012.8hPa Calm     93% 0.00in /  0mm
06:44 41.5 °F /  5.3 °C 39.3 °F /  4.1 °C 29.91in /  1012.8hPa Calm     92% 0.00in /  0mm
06:49 41.5 °F /  5.3 °C 39.3 °F /  4.1 °C 29.91in /  1012.8hPa Calm     92% 0.00in /  0mm
06:54 41.8 °F /  5.4 °C 39.4 °F /  4.1 °C 29.91in /  1012.8hPa Calm     91% 0.00in /  0mm
06:59 41.8 °F /  5.4 °C 39.4 °F /  4.1 °C 29.91in /  1012.8hPa Calm     91% 0.00in /  0mm
07:04 41.6 °F /  5.3 °C 38.9 °F /  3.8 °C 29.91in /  1012.8hPa Calm     90% 0.00in /  0mm
07:09 40.8 °F /  4.9 °C 37.8 °F /  3.2 °C 29.91in /  1012.8hPa Calm     89% 0.00in /  0mm
07:14 40.5 °F /  4.7 °C 37.8 °F /  3.2 °C 29.91in /  1012.8hPa Calm     90% 0.00in /  0mm
07:19 40.4 °F /  4.7 °C 38.0 °F /  3.3 °C 29.92in /  1013.1hPa Calm     91% 0.00in /  0mm
07:24 40.2 °F /  4.6 °C 37.8 °F /  3.2 °C 29.92in /  1013.1hPa Calm     91% 0.00in /  0mm
07:29 40.5 °F /  4.7 °C 38.1 °F /  3.4 °C 29.91in /  1012.8hPa Calm     91% 0.00in /  0mm
07:34 41.4 °F /  5.2 °C 39.0 °F /  3.9 °C 29.91in /  1012.8hPa Calm     91% 0.00in /  0mm
07:39 41.9 °F /  5.5 °C 39.2 °F /  4 °C 29.91in /  1012.8hPa Calm     90% 0.00in /  0mm
07:44 42.1 °F /  5.6 °C 39.4 °F /  4.1 °C 29.91in /  1012.8hPa Calm     90% 0.00in /  0mm
07:49 42.1 °F /  5.6 °C 39.1 °F /  3.9 °C 29.91in /  1012.8hPa Calm     89% 0.00in /  0mm
07:54 42.4 °F /  5.8 °C 39.1 °F /  3.9 °C 29.92in /  1013.1hPa Calm     88% 0.00in /  0mm
07:59 42.7 °F /  5.9 °C 39.4 °F /  4.1 °C 29.91in /  1012.8hPa Calm     88% 0.00in /  0mm
08:04 43.7 °F /  6.5 °C 39.8 °F /  4.3 °C 29.91in /  1012.8hPa Calm     86% 0.00in /  0mm
08:09 44.6 °F /  7 °C 40.1 °F /  4.5 °C 29.91in /  1012.8hPa Calm     84% 0.00in /  0mm
08:14 45.2 °F /  7.3 °C 40.3 °F /  4.6 °C 29.91in /  1012.8hPa Calm     83% 0.00in /  0mm
08:19 45.5 °F /  7.5 °C 40.3 °F /  4.6 °C 29.91in /  1012.8hPa Calm     82% 0.00in /  0mm
08:24 45.8 °F /  7.7 °C 40.3 °F /  4.6 °C 29.91in /  1012.8hPa Calm     81% 0.00in /  0mm
08:29 46.3 °F /  7.9 °C 40.1 °F /  4.5 °C 29.91in /  1012.8hPa Calm     79% 0.00in /  0mm
08:34 46.9 °F /  8.3 °C 40.7 °F /  4.8 °C 29.91in /  1012.8hPa Calm     79% 0.00in /  0mm
08:39 47.7 °F /  8.7 °C 41.2 °F /  5.1 °C 29.91in /  1012.8hPa South 1.0mph /  1.6km/h 3.0mph /  4.8km/h 78% 0.00in /  0mm
08:44 48.3 °F /  9.1 °C 41.4 °F /  5.2 °C 29.91in /  1012.8hPa South 1.0mph /  1.6km/h 1.0mph /  1.6km/h 77% 0.00in /  0mm
08:49 49.2 °F /  9.6 °C 40.9 °F /  4.9 °C 29.90in /  1012.4hPa Calm   2.0mph /  3.2km/h 73% 0.00in /  0mm
08:54 49.7 °F /  9.8 °C 41.7 °F /  5.4 °C 29.90in /  1012.4hPa South 1.0mph /  1.6km/h 3.0mph /  4.8km/h 74% 0.00in /  0mm
08:59 50.3 °F /  10.2 °C 42.0 °F /  5.6 °C 29.90in /  1012.4hPa Calm     73% 0.00in /  0mm
09:04 50.9 °F /  10.5 °C 41.8 °F /  5.4 °C 29.90in /  1012.4hPa Calm   2.0mph /  3.2km/h 71% 0.00in /  0mm
09:09 51.4 °F /  10.8 °C 42.7 °F /  5.9 °C 29.89in /  1012.1hPa Calm     72% 0.00in /  0mm
09:14 51.9 °F /  11.1 °C 42.8 °F /  6 °C 29.89in /  1012.1hPa South 1.0mph /  1.6km/h 3.0mph /  4.8km/h 71% 0.00in /  0mm
09:19 52.2 °F /  11.2 °C 42.3 °F /  5.7 °C 29.89in /  1012.1hPa South 1.0mph /  1.6km/h 3.0mph /  4.8km/h 69% 0.00in /  0mm
09:24 52.8 °F /  11.6 °C 43.3 °F /  6.3 °C 29.89in /  1012.1hPa Calm   5.0mph /  8km/h 70% 0.00in /  0mm
09:29 53.2 °F /  11.8 °C 43.3 °F /  6.3 °C 29.89in /  1012.1hPa South 2.0mph /  3.2km/h 5.0mph /  8km/h 69% 0.00in /  0mm
09:34 53.6 °F /  12 °C 44.0 °F /  6.7 °C 29.89in /  1012.1hPa South 3.0mph /  4.8km/h 5.0mph /  8km/h 70% 0.00in /  0mm
09:39 54.3 °F /  12.4 °C 44.0 °F /  6.7 °C 29.89in /  1012.1hPa SSW 3.0mph /  4.8km/h 5.0mph /  8km/h 68% 0.00in /  0mm
09:44 54.2 °F /  12.3 °C 43.5 °F /  6.4 °C 29.89in /  1012.1hPa South 4.0mph /  6.4km/h 7.0mph /  11.3km/h 67% 0.00in /  0mm
09:49 54.4 °F /  12.4 °C 44.1 °F /  6.7 °C 29.89in /  1012.1hPa SSW 3.0mph /  4.8km/h 7.0mph /  11.3km/h 68% 0.00in /  0mm
09:54 55.3 °F /  12.9 °C 44.9 °F /  7.2 °C 29.89in /  1012.1hPa SSW 3.0mph /  4.8km/h 6.0mph /  9.7km/h 68% 0.00in /  0mm
09:59 56.0 °F /  13.3 °C 45.2 °F /  7.3 °C 29.89in /  1012.1hPa SW 3.0mph /  4.8km/h 6.0mph /  9.7km/h 67% 0.00in /  0mm
10:04 55.9 °F /  13.3 °C 44.7 °F /  7.1 °C 29.89in /  1012.1hPa SW 3.0mph /  4.8km/h 6.0mph /  9.7km/h 66% 0.00in /  0mm
10:09 56.6 °F /  13.7 °C 45.4 °F /  7.4 °C 29.88in /  1011.7hPa South 5.0mph /  8km/h 5.0mph /  8km/h 66% 0.00in /  0mm
10:14 57.5 °F /  14.2 °C 46.2 °F /  7.9 °C 29.88in /  1011.7hPa South 6.0mph /  9.7km/h 6.0mph /  9.7km/h 66% 0.00in /  0mm
10:19 57.7 °F /  14.3 °C 46.0 °F /  7.8 °C 29.88in /  1011.7hPa SW 5.0mph /  8km/h 8.0mph /  12.9km/h 65% 0.00in /  0mm
10:24 58.6 °F /  14.8 °C 46.9 °F /  8.3 °C 29.88in /  1011.7hPa SW 4.0mph /  6.4km/h 8.0mph /  12.9km/h 65% 0.00in /  0mm
10:29 58.8 °F /  14.9 °C 46.6 °F /  8.1 °C 29.88in /  1011.7hPa SSW 4.0mph /  6.4km/h 9.0mph /  14.5km/h 64% 0.00in /  0mm
10:34 58.2 °F /  14.6 °C 46.9 °F /  8.3 °C 29.87in /  1011.4hPa SW 4.0mph /  6.4km/h 9.0mph /  14.5km/h 66% 0.00in /  0mm
10:39 57.7 °F /  14.3 °C 46.4 °F /  8 °C 29.87in /  1011.4hPa SW 8.0mph /  12.9km/h 9.0mph /  14.5km/h 66% 0.00in /  0mm
10:44 57.6 °F /  14.2 °C 46.7 °F /  8.2 °C 29.88in /  1011.7hPa SSW 3.0mph /  4.8km/h 9.0mph /  14.5km/h 67% 0.00in /  0mm
10:49 57.8 °F /  14.3 °C 46.9 °F /  8.3 °C 29.87in /  1011.4hPa SW 7.0mph /  11.3km/h 8.0mph /  12.9km/h 67% 0.00in /  0mm
10:54 57.6 °F /  14.2 °C 47.1 °F /  8.4 °C 29.87in /  1011.4hPa SW 5.0mph /  8km/h 9.0mph /  14.5km/h 68% 0.00in /  0mm
10:59 57.6 °F /  14.2 °C 47.5 °F /  8.6 °C 29.87in /  1011.4hPa SW 5.0mph /  8km/h 9.0mph /  14.5km/h 69% 0.00in /  0mm
11:04 57.3 °F /  14.1 °C 46.8 °F /  8.2 °C 29.87in /  1011.4hPa SW 5.0mph /  8km/h 11.0mph /  17.7km/h 68% 0.00in /  0mm
11:09 57.4 °F /  14.1 °C 47.3 °F /  8.5 °C 29.87in /  1011.4hPa WSW 6.0mph /  9.7km/h 11.0mph /  17.7km/h 69% 0.00in /  0mm
11:14 57.5 °F /  14.2 °C 47.0 °F /  8.3 °C 29.87in /  1011.4hPa WSW 6.0mph /  9.7km/h 11.0mph /  17.7km/h 68% 0.00in /  0mm
11:19 57.5 °F /  14.2 °C 47.4 °F /  8.6 °C 29.86in /  1011.1hPa WSW 6.0mph /  9.7km/h 11.0mph /  17.7km/h 69% 0.00in /  0mm
11:24 57.9 °F /  14.4 °C 47.8 °F /  8.8 °C 29.87in /  1011.4hPa SW 2.0mph /  3.2km/h 11.0mph /  17.7km/h 69% 0.00in /  0mm
11:29 58.4 °F /  14.7 °C 48.3 °F /  9.1 °C 29.87in /  1011.4hPa SW 7.0mph /  11.3km/h 13.0mph /  20.9km/h 69% 0.00in /  0mm
11:34 58.6 °F /  14.8 °C 48.5 °F /  9.2 °C 29.86in /  1011.1hPa WSW 6.0mph /  9.7km/h 11.0mph /  17.7km/h 69% 0.00in /  0mm
11:39 58.7 °F /  14.8 °C 48.9 °F /  9.4 °C 29.86in /  1011.1hPa SW 6.0mph /  9.7km/h 11.0mph /  17.7km/h 70% 0.00in /  0mm
11:44 59.4 °F /  15.2 °C 48.8 °F /  9.3 °C 29.86in /  1011.1hPa WSW 5.0mph /  8km/h 9.0mph /  14.5km/h 68% 0.00in /  0mm
11:49 59.3 °F /  15.2 °C 49.1 °F /  9.5 °C 29.86in /  1011.1hPa WSW 4.0mph /  6.4km/h 11.0mph /  17.7km/h 69% 0.00in /  0mm
11:54 58.9 °F /  14.9 °C 48.7 °F /  9.3 °C 29.86in /  1011.1hPa WSW 6.0mph /  9.7km/h 11.0mph /  17.7km/h 69% 0.00in /  0mm
11:59 58.3 °F /  14.6 °C 48.6 °F /  9.2 °C 29.86in /  1011.1hPa WSW 7.0mph /  11.3km/h 15.0mph /  24.1km/h 70% 0.00in /  0mm
12:04 58.3 °F /  14.6 °C 48.9 °F /  9.4 °C 29.86in /  1011.1hPa WSW 8.0mph /  12.9km/h 15.0mph /  24.1km/h 71% 0.00in /  0mm
12:09 58.4 °F /  14.7 °C 49.4 °F /  9.7 °C 29.86in /  1011.1hPa WSW 7.0mph /  11.3km/h 15.0mph /  24.1km/h 72% 0.00in /  0mm
12:14 58.1 °F /  14.5 °C 49.1 °F /  9.5 °C 29.86in /  1011.1hPa WSW 7.0mph /  11.3km/h 15.0mph /  24.1km/h 72% 0.00in /  0mm
12:19 57.8 °F /  14.3 °C 49.6 °F /  9.8 °C 29.86in /  1011.1hPa WSW 6.0mph /  9.7km/h 12.0mph /  19.3km/h 74% 0.00in /  0mm
12:24 57.3 °F /  14.1 °C 49.4 °F /  9.7 °C 29.85in /  1010.7hPa WNW 4.0mph /  6.4km/h 11.0mph /  17.7km/h 75% 0.00in /  0mm
12:29 56.7 °F /  13.7 °C 49.2 °F /  9.6 °C 29.85in /  1010.7hPa WNW 5.0mph /  8km/h 14.0mph /  22.5km/h 76% 0.00in /  0mm
12:34 56.6 °F /  13.7 °C 49.5 °F /  9.7 °C 29.85in /  1010.7hPa WSW 8.0mph /  12.9km/h 12.0mph /  19.3km/h 77% 0.00in /  0mm
12:39 56.4 °F /  13.6 °C 49.3 °F /  9.6 °C 29.85in /  1010.7hPa West 3.0mph /  4.8km/h 13.0mph /  20.9km/h 77% 0.00in /  0mm
12:44 56.3 °F /  13.5 °C 49.2 °F /  9.6 °C 29.85in /  1010.7hPa West 2.0mph /  3.2km/h 10.0mph /  16.1km/h 77% 0.00in /  0mm
12:49 56.1 °F /  13.4 °C 49.0 °F /  9.4 °C 29.85in /  1010.7hPa West 4.0mph /  6.4km/h 9.0mph /  14.5km/h 77% 0.00in /  0mm
12:54 55.8 °F /  13.2 °C 48.7 °F /  9.3 °C 29.85in /  1010.7hPa West 4.0mph /  6.4km/h 9.0mph /  14.5km/h 77% 0.00in /  0mm
12:59 55.9 °F /  13.3 °C 48.8 °F /  9.3 °C 29.85in /  1010.7hPa WSW 3.0mph /  4.8km/h 7.0mph /  11.3km/h 77% 0.00in /  0mm
13:04 55.9 °F /  13.3 °C 48.8 °F /  9.3 °C 29.85in /  1010.7hPa WSW 4.0mph /  6.4km/h 7.0mph /  11.3km/h 77% 0.00in /  0mm
13:09 55.9 °F /  13.3 °C 48.8 °F /  9.3 °C 29.85in /  1010.7hPa SW 4.0mph /  6.4km/h 9.0mph /  14.5km/h 77% 0.00in /  0mm
13:14 55.9 °F /  13.3 °C 48.8 °F /  9.3 °C 29.85in /  1010.7hPa WSW 2.0mph /  3.2km/h 7.0mph /  11.3km/h 77% 0.00in /  0mm
13:19 55.9 °F /  13.3 °C 49.1 °F /  9.5 °C 29.85in /  1010.7hPa SW 4.0mph /  6.4km/h 8.0mph /  12.9km/h 78% 0.00in /  0mm
13:24 56.0 °F /  13.3 °C 49.2 °F /  9.6 °C 29.85in /  1010.7hPa SW 3.0mph /  4.8km/h 10.0mph /  16.1km/h 78% 0.00in /  0mm
13:29 56.3 °F /  13.5 °C 49.5 °F /  9.7 °C 29.84in /  1010.4hPa WSW 5.0mph /  8km/h 10.0mph /  16.1km/h 78% 0.00in /  0mm
13:34 56.4 °F /  13.6 °C 49.6 °F /  9.8 °C 29.84in /  1010.4hPa WSW 5.0mph /  8km/h 9.0mph /  14.5km/h 78% 0.00in /  0mm
13:39 56.5 °F /  13.6 °C 49.7 °F /  9.8 °C 29.84in /  1010.4hPa WSW 5.0mph /  8km/h 9.0mph /  14.5km/h 78% 0.00in /  0mm
13:44 56.6 °F /  13.7 °C 49.8 °F /  9.9 °C 29.84in /  1010.4hPa WSW 5.0mph /  8km/h 9.0mph /  14.5km/h 78% 0.00in /  0mm
13:49 56.8 °F /  13.8 °C 50.0 °F /  10 °C 29.84in /  1010.4hPa WSW 5.0mph /  8km/h 9.0mph /  14.5km/h 78% 0.00in /  0mm
13:54 56.9 °F /  13.8 °C 49.8 °F /  9.9 °C 29.84in /  1010.4hPa WSW 5.0mph /  8km/h 10.0mph /  16.1km/h 77% 0.00in /  0mm
13:59 56.5 °F /  13.6 °C 49.7 °F /  9.8 °C 29.84in /  1010.4hPa SW 5.0mph /  8km/h 10.0mph /  16.1km/h 78% 0.00in /  0mm
14:04 56.1 °F /  13.4 °C 49.3 °F /  9.6 °C 29.84in /  1010.4hPa SW 5.0mph /  8km/h 10.0mph /  16.1km/h 78% 0.00in /  0mm
14:09 55.3 °F /  12.9 °C 48.6 °F /  9.2 °C 29.84in /  1010.4hPa SW 8.0mph /  12.9km/h 9.0mph /  14.5km/h 78% 0.00in /  0mm
14:14 55.1 °F /  12.8 °C 48.7 °F /  9.3 °C 29.83in /  1010hPa WSW 5.0mph /  8km/h 9.0mph /  14.5km/h 79% 0.00in /  0mm
14:19 54.8 °F /  12.7 °C 48.7 °F /  9.3 °C 29.83in /  1010hPa SW 2.0mph /  3.2km/h 9.0mph /  14.5km/h 80% 0.00in /  0mm
14:24 54.7 °F /  12.6 °C 48.6 °F /  9.2 °C 29.83in /  1010hPa SW 3.0mph /  4.8km/h 8.0mph /  12.9km/h 80% 0.00in /  0mm
14:29 54.6 °F /  12.6 °C 48.6 °F /  9.2 °C 29.83in /  1010hPa WSW 5.0mph /  8km/h 9.0mph /  14.5km/h 80% 0.00in /  0mm
14:34 54.4 °F /  12.4 °C 48.7 °F /  9.3 °C 29.83in /  1010hPa WSW 5.0mph /  8km/h 11.0mph /  17.7km/h 81% 0.00in /  0mm
14:39 54.2 °F /  12.3 °C 48.5 °F /  9.2 °C 29.83in /  1010hPa WSW 5.0mph /  8km/h 12.0mph /  19.3km/h 81% 0.00in /  0mm
14:44 54.1 °F /  12.3 °C 48.4 °F /  9.1 °C 29.83in /  1010hPa WSW 5.0mph /  8km/h 12.0mph /  19.3km/h 81% 0.00in /  0mm
14:49 54.0 °F /  12.2 °C 48.3 °F /  9.1 °C 29.83in /  1010hPa SW 5.0mph /  8km/h 10.0mph /  16.1km/h 81% 0.00in /  0mm
14:54 53.8 °F /  12.1 °C 48.4 °F /  9.1 °C 29.83in /  1010hPa SW 5.0mph /  8km/h 10.0mph /  16.1km/h 82% 0.00in /  0mm
14:59 53.9 °F /  12.2 °C 48.5 °F /  9.2 °C 29.83in /  1010hPa SW 4.0mph /  6.4km/h 10.0mph /  16.1km/h 82% 0.00in /  0mm
15:04 54.1 °F /  12.3 °C 48.7 °F /  9.3 °C 29.83in /  1010hPa WSW 3.0mph /  4.8km/h 7.0mph /  11.3km/h 82% 0.00in /  0mm
15:09 54.0 °F /  12.2 °C 48.6 °F /  9.2 °C 29.83in /  1010hPa West 2.0mph /  3.2km/h 6.0mph /  9.7km/h 82% 0.00in /  0mm
15:14 54.0 °F /  12.2 °C 48.6 °F /  9.2 °C 29.83in /  1010hPa SSW 4.0mph /  6.4km/h 7.0mph /  11.3km/h 82% 0.00in /  0mm
15:19 53.8 °F /  12.1 °C 48.8 °F /  9.3 °C 29.82in /  1009.7hPa West 4.0mph /  6.4km/h 8.0mph /  12.9km/h 83% 0.00in /  0mm
15:24 53.9 °F /  12.2 °C 48.9 °F /  9.4 °C 29.82in /  1009.7hPa WSW 1.0mph /  1.6km/h 6.0mph /  9.7km/h 83% 0.00in /  0mm
15:29 53.9 °F /  12.2 °C 48.9 °F /  9.4 °C 29.82in /  1009.7hPa SW 4.0mph /  6.4km/h 6.0mph /  9.7km/h 83% 0.00in /  0mm
15:34 53.6 °F /  12 °C 48.6 °F /  9.2 °C 29.82in /  1009.7hPa WSW 3.0mph /  4.8km/h 6.0mph /  9.7km/h 83% 0.00in /  0mm
15:39 53.5 °F /  11.9 °C 48.5 °F /  9.2 °C 29.82in /  1009.7hPa SW 3.0mph /  4.8km/h 6.0mph /  9.7km/h 83% 0.00in /  0mm
15:44 53.4 °F /  11.9 °C 48.7 °F /  9.3 °C 29.82in /  1009.7hPa WSW 3.0mph /  4.8km/h 6.0mph /  9.7km/h 84% 0.00in /  0mm
15:49 53.3 °F /  11.8 °C 48.6 °F /  9.2 °C 29.82in /  1009.7hPa SW 3.0mph /  4.8km/h 6.0mph /  9.7km/h 84% 0.00in /  0mm
15:54 53.3 °F /  11.8 °C 48.6 °F /  9.2 °C 29.82in /  1009.7hPa WSW 3.0mph /  4.8km/h 5.0mph /  8km/h 84% 0.00in /  0mm
15:59 53.3 °F /  11.8 °C 48.6 °F /  9.2 °C 29.82in /  1009.7hPa SW 5.0mph /  8km/h 7.0mph /  11.3km/h 84% 0.00in /  0mm
16:04 53.2 °F /  11.8 °C 48.5 °F /  9.2 °C 29.82in /  1009.7hPa SW 2.0mph /  3.2km/h 5.0mph /  8km/h 84% 0.00in /  0mm
16:09 53.1 °F /  11.7 °C 48.4 °F /  9.1 °C 29.82in /  1009.7hPa South 4.0mph /  6.4km/h 4.0mph /  6.4km/h 84% 0.00in /  0mm
16:14 53.1 °F /  11.7 °C 48.7 °F /  9.3 °C 29.82in /  1009.7hPa SSW 2.0mph /  3.2km/h 4.0mph /  6.4km/h 85% 0.00in /  0mm
16:19 53.3 °F /  11.8 °C 48.9 °F /  9.4 °C 29.81in /  1009.4hPa SSW 2.0mph /  3.2km/h 4.0mph /  6.4km/h 85% 0.00in /  0mm
16:24 53.6 °F /  12 °C 49.2 °F /  9.6 °C 29.81in /  1009.4hPa SW 1.0mph /  1.6km/h 6.0mph /  9.7km/h 85% 0.00in /  0mm
16:29 53.9 °F /  12.2 °C 49.5 °F /  9.7 °C 29.81in /  1009.4hPa SW 1.0mph /  1.6km/h 4.0mph /  6.4km/h 85% 0.00in /  0mm
16:34 54.1 °F /  12.3 °C 49.7 °F /  9.8 °C 29.81in /  1009.4hPa SW 2.0mph /  3.2km/h 4.0mph /  6.4km/h 85% 0.00in /  0mm
16:39 54.2 °F /  12.3 °C 49.8 °F /  9.9 °C 29.81in /  1009.4hPa WSW 1.0mph /  1.6km/h 4.0mph /  6.4km/h 85% 0.00in /  0mm
16:44 54.3 °F /  12.4 °C 49.9 °F /  9.9 °C 29.81in /  1009.4hPa West 3.0mph /  4.8km/h 7.0mph /  11.3km/h 85% 0.00in /  0mm
16:49 54.4 °F /  12.4 °C 50.0 °F /  10 °C 29.81in /  1009.4hPa WSW 3.0mph /  4.8km/h 7.0mph /  11.3km/h 85% 0.00in /  0mm
16:54 54.4 °F /  12.4 °C 50.0 °F /  10 °C 29.80in /  1009hPa WSW 2.0mph /  3.2km/h 5.0mph /  8km/h 85% 0.00in /  0mm
16:59 54.4 °F /  12.4 °C 50.0 °F /  10 °C 29.81in /  1009.4hPa WSW 3.0mph /  4.8km/h 6.0mph /  9.7km/h 85% 0.00in /  0mm
17:04 54.4 °F /  12.4 °C 50.0 °F /  10 °C 29.80in /  1009hPa WSW 3.0mph /  4.8km/h 6.0mph /  9.7km/h 85% 0.00in /  0mm
17:09 54.5 °F /  12.5 °C 50.1 °F /  10.1 °C 29.80in /  1009hPa WSW 2.0mph /  3.2km/h 5.0mph /  8km/h 85% 0.00in /  0mm
17:14 54.6 °F /  12.6 °C 50.2 °F /  10.1 °C 29.80in /  1009hPa WSW 1.0mph /  1.6km/h 5.0mph /  8km/h 85% 0.00in /  0mm
17:19 54.4 °F /  12.4 °C 50.0 °F /  10 °C 29.80in /  1009hPa Calm   4.0mph /  6.4km/h 85% 0.00in /  0mm
17:24 54.3 °F /  12.4 °C 50.2 °F /  10.1 °C 29.80in /  1009hPa Calm   5.0mph /  8km/h 86% 0.00in /  0mm
17:29 54.3 °F /  12.4 °C 50.2 °F /  10.1 °C 29.80in /  1009hPa West 1.0mph /  1.6km/h 4.0mph /  6.4km/h 86% 0.00in /  0mm
17:34 54.3 °F /  12.4 °C 50.2 °F /  10.1 °C 29.80in /  1009hPa West 2.0mph /  3.2km/h 4.0mph /  6.4km/h 86% 0.00in /  0mm
17:39 54.2 °F /  12.3 °C 50.1 °F /  10.1 °C 29.80in /  1009hPa West 4.0mph /  6.4km/h 6.0mph /  9.7km/h 86% 0.00in /  0mm
17:44 54.2 °F /  12.3 °C 50.1 °F /  10.1 °C 29.80in /  1009hPa WSW 1.0mph /  1.6km/h 5.0mph /  8km/h 86% 0.00in /  0mm
17:49 54.2 °F /  12.3 °C 50.1 °F /  10.1 °C 29.80in /  1009hPa WSW 2.0mph /  3.2km/h 5.0mph /  8km/h 86% 0.00in /  0mm
17:54 54.1 °F /  12.3 °C 50.0 °F /  10 °C 29.80in /  1009hPa WSW 2.0mph /  3.2km/h 4.0mph /  6.4km/h 86% 0.00in /  0mm
17:59 54.1 °F /  12.3 °C 50.0 °F /  10 °C 29.80in /  1009hPa WSW 2.0mph /  3.2km/h 3.0mph /  4.8km/h 86% 0.00in /  0mm
18:04 54.1 °F /  12.3 °C 50.0 °F /  10 °C 29.80in /  1009hPa WSW 2.0mph /  3.2km/h 4.0mph /  6.4km/h 86% 0.00in /  0mm
18:09 53.9 °F /  12.2 °C 49.8 °F /  9.9 °C 29.80in /  1009hPa WSW 3.0mph /  4.8km/h 4.0mph /  6.4km/h 86% 0.00in /  0mm
18:14 53.8 °F /  12.1 °C 49.7 °F /  9.8 °C 29.80in /  1009hPa WSW 2.0mph /  3.2km/h 4.0mph /  6.4km/h 86% 0.00in /  0mm
18:19 53.7 °F /  12.1 °C 49.6 °F /  9.8 °C 29.80in /  1009hPa SW 2.0mph /  3.2km/h 4.0mph /  6.4km/h 86% 0.00in /  0mm
18:24 53.6 °F /  12 °C 49.5 °F /  9.7 °C 29.80in /  1009hPa SW 1.0mph /  1.6km/h 2.0mph /  3.2km/h 86% 0.00in /  0mm
18:29 53.6 °F /  12 °C 49.5 °F /  9.7 °C 29.80in /  1009hPa SW 2.0mph /  3.2km/h 2.0mph /  3.2km/h 86% 0.00in /  0mm
18:34 53.4 °F /  11.9 °C 49.3 °F /  9.6 °C 29.80in /  1009hPa Calm   3.0mph /  4.8km/h 86% 0.00in /  0mm
18:39 53.3 °F /  11.8 °C 49.2 °F /  9.6 °C 29.80in /  1009hPa Calm   4.0mph /  6.4km/h 86% 0.00in /  0mm
18:44 53.2 °F /  11.8 °C 49.1 °F /  9.5 °C 29.80in /  1009hPa SW 2.0mph /  3.2km/h 4.0mph /  6.4km/h 86% 0.00in /  0mm
18:49 53.1 °F /  11.7 °C 49.3 °F /  9.6 °C 29.80in /  1009hPa SW 2.0mph /  3.2km/h 4.0mph /  6.4km/h 87% 0.00in /  0mm
18:54 53.1 °F /  11.7 °C 49.3 °F /  9.6 °C 29.81in /  1009.4hPa SW 2.0mph /  3.2km/h 4.0mph /  6.4km/h 87% 0.00in /  0mm
18:59 53.0 °F /  11.7 °C 48.9 °F /  9.4 °C 29.80in /  1009hPa WSW 1.0mph /  1.6km/h 4.0mph /  6.4km/h 86% 0.00in /  0mm
19:04 53.0 °F /  11.7 °C 49.2 °F /  9.6 °C 29.81in /  1009.4hPa WSW 1.0mph /  1.6km/h 4.0mph /  6.4km/h 87% 0.00in /  0mm
19:09 52.9 °F /  11.6 °C 49.1 °F /  9.5 °C 29.81in /  1009.4hPa Calm   2.0mph /  3.2km/h 87% 0.00in /  0mm
19:14 52.9 °F /  11.6 °C 49.1 °F /  9.5 °C 29.80in /  1009hPa Calm   1.0mph /  1.6km/h 87% 0.00in /  0mm
19:19 52.9 °F /  11.6 °C 49.1 °F /  9.5 °C 29.80in /  1009hPa Calm     87% 0.00in /  0mm
19:24 52.9 °F /  11.6 °C 49.1 °F /  9.5 °C 29.80in /  1009hPa WSW 1.0mph /  1.6km/h 3.0mph /  4.8km/h 87% 0.00in /  0mm
19:29 52.8 °F /  11.6 °C 49.0 °F /  9.4 °C 29.80in /  1009hPa Calm   2.0mph /  3.2km/h 87% 0.00in /  0mm
19:34 52.7 °F /  11.5 °C 48.9 °F /  9.4 °C 29.80in /  1009hPa Calm   1.0mph /  1.6km/h 87% 0.00in /  0mm
19:39 52.8 °F /  11.6 °C 49.0 °F /  9.4 °C 29.80in /  1009hPa SSW 1.0mph /  1.6km/h 3.0mph /  4.8km/h 87% 0.00in /  0mm
19:44 52.8 °F /  11.6 °C 49.0 °F /  9.4 °C 29.80in /  1009hPa SSW 1.0mph /  1.6km/h 3.0mph /  4.8km/h 87% 0.00in /  0mm
19:49 53.0 °F /  11.7 °C 49.2 °F /  9.6 °C 29.80in /  1009hPa SSW 2.0mph /  3.2km/h 3.0mph /  4.8km/h 87% 0.00in /  0mm
19:54 53.1 °F /  11.7 °C 49.3 °F /  9.6 °C 29.80in /  1009hPa SSW 2.0mph /  3.2km/h 4.0mph /  6.4km/h 87% 0.00in /  0mm
19:59 53.1 °F /  11.7 °C 49.0 °F /  9.4 °C 29.80in /  1009hPa Calm   2.0mph /  3.2km/h 86% 0.00in /  0mm
20:04 53.0 °F /  11.7 °C 48.9 °F /  9.4 °C 29.80in /  1009hPa SSW 1.0mph /  1.6km/h 2.0mph /  3.2km/h 86% 0.00in /  0mm
20:09 53.0 °F /  11.7 °C 49.2 °F /  9.6 °C 29.80in /  1009hPa Calm   2.0mph /  3.2km/h 87% 0.00in /  0mm
20:14 53.1 °F /  11.7 °C 49.3 °F /  9.6 °C 29.80in /  1009hPa Calm   1.0mph /  1.6km/h 87% 0.00in /  0mm
20:19 53.1 °F /  11.7 °C 49.3 °F /  9.6 °C 29.80in /  1009hPa Calm   1.0mph /  1.6km/h 87% 0.00in /  0mm
20:24 53.2 °F /  11.8 °C 49.4 °F /  9.7 °C 29.80in /  1009hPa Calm     87% 0.00in /  0mm
20:29 53.2 °F /  11.8 °C 49.4 °F /  9.7 °C 29.80in /  1009hPa SSW 1.0mph /  1.6km/h 2.0mph /  3.2km/h 87% 0.00in /  0mm
20:34 53.3 °F /  11.8 °C 49.5 °F /  9.7 °C 29.80in /  1009hPa Calm   2.0mph /  3.2km/h 87% 0.00in /  0mm
20:39 53.3 °F /  11.8 °C 49.5 °F /  9.7 °C 29.80in /  1009hPa SSW 1.0mph /  1.6km/h 2.0mph /  3.2km/h 87% 0.00in /  0mm
20:44 53.5 °F /  11.9 °C 49.7 °F /  9.8 °C 29.80in /  1009hPa SSW 1.0mph /  1.6km/h 3.0mph /  4.8km/h 87% 0.00in /  0mm
20:49 53.6 °F /  12 °C 49.8 °F /  9.9 °C 29.80in /  1009hPa SSW 1.0mph /  1.6km/h 3.0mph /  4.8km/h 87% 0.00in /  0mm
20:54 53.8 °F /  12.1 °C 50.0 °F /  10 °C 29.80in /  1009hPa SSW 2.0mph /  3.2km/h 4.0mph /  6.4km/h 87% 0.00in /  0mm
20:59 54.0 °F /  12.2 °C 50.2 °F /  10.1 °C 29.80in /  1009hPa SSW 3.0mph /  4.8km/h 4.0mph /  6.4km/h 87% 0.00in /  0mm
21:04 54.2 °F /  12.3 °C 50.4 °F /  10.2 °C 29.79in /  1008.7hPa South 4.0mph /  6.4km/h 5.0mph /  8km/h 87% 0.00in /  0mm
21:09 54.6 °F /  12.6 °C 50.8 °F /  10.4 °C 29.80in /  1009hPa South 2.0mph /  3.2km/h 5.0mph /  8km/h 87% 0.00in /  0mm
21:14 54.9 °F /  12.7 °C 51.1 °F /  10.6 °C 29.79in /  1008.7hPa SSW 3.0mph /  4.8km/h 6.0mph /  9.7km/h 87% 0.00in /  0mm
21:19 55.2 °F /  12.9 °C 51.4 °F /  10.8 °C 29.79in /  1008.7hPa SSW 3.0mph /  4.8km/h 7.0mph /  11.3km/h 87% 0.00in /  0mm
21:24 55.4 °F /  13 °C 51.6 °F /  10.9 °C 29.79in /  1008.7hPa SSW 3.0mph /  4.8km/h 7.0mph /  11.3km/h 87% 0.00in /  0mm
21:29 55.6 °F /  13.1 °C 51.5 °F /  10.8 °C 29.79in /  1008.7hPa SSW 4.0mph /  6.4km/h 6.0mph /  9.7km/h 86% 0.00in /  0mm
21:34 55.8 °F /  13.2 °C 51.7 °F /  10.9 °C 29.79in /  1008.7hPa SSW 2.0mph /  3.2km/h 6.0mph /  9.7km/h 86% 0.00in /  0mm
21:39 56.0 °F /  13.3 °C 51.9 °F /  11.1 °C 29.78in /  1008.4hPa SSW 2.0mph /  3.2km/h 6.0mph /  9.7km/h 86% 0.00in /  0mm
21:44 56.1 °F /  13.4 °C 51.7 °F /  10.9 °C 29.79in /  1008.7hPa SSW 3.0mph /  4.8km/h 8.0mph /  12.9km/h 85% 0.00in /  0mm
21:49 56.2 °F /  13.4 °C 51.7 °F /  10.9 °C 29.79in /  1008.7hPa SSW 4.0mph /  6.4km/h 9.0mph /  14.5km/h 85% 0.00in /  0mm
21:54 56.3 °F /  13.5 °C 51.8 °F /  11 °C 29.78in /  1008.4hPa South 7.0mph /  11.3km/h 7.0mph /  11.3km/h 85% 0.00in /  0mm
21:59 56.4 °F /  13.6 °C 51.6 °F /  10.9 °C 29.78in /  1008.4hPa SSW 3.0mph /  4.8km/h 7.0mph /  11.3km/h 84% 0.00in /  0mm
22:04 56.4 °F /  13.6 °C 51.6 °F /  10.9 °C 29.78in /  1008.4hPa SSW 4.0mph /  6.4km/h 7.0mph /  11.3km/h 84% 0.00in /  0mm
22:09 56.5 °F /  13.6 °C 51.7 °F /  10.9 °C 29.78in /  1008.4hPa SSW 2.0mph /  3.2km/h 8.0mph /  12.9km/h 84% 0.00in /  0mm
22:14 56.7 °F /  13.7 °C 51.9 °F /  11.1 °C 29.78in /  1008.4hPa SSW 4.0mph /  6.4km/h 8.0mph /  12.9km/h 84% 0.00in /  0mm
22:19 56.8 °F /  13.8 °C 51.7 °F /  10.9 °C 29.78in /  1008.4hPa SSW 4.0mph /  6.4km/h 8.0mph /  12.9km/h 83% 0.00in /  0mm
22:24 57.0 °F /  13.9 °C 51.9 °F /  11.1 °C 29.77in /  1008hPa SSW 4.0mph /  6.4km/h 10.0mph /  16.1km/h 83% 0.00in /  0mm
22:29 57.1 °F /  13.9 °C 51.7 °F /  10.9 °C 29.77in /  1008hPa SW 4.0mph /  6.4km/h 10.0mph /  16.1km/h 82% 0.00in /  0mm
22:34 57.1 °F /  13.9 °C 51.7 °F /  10.9 °C 29.77in /  1008hPa South 4.0mph /  6.4km/h 7.0mph /  11.3km/h 82% 0.00in /  0mm
22:39 57.2 °F /  14 °C 51.8 °F /  11 °C 29.77in /  1008hPa South 4.0mph /  6.4km/h 7.0mph /  11.3km/h 82% 0.00in /  0mm
22:44 57.2 °F /  14 °C 51.8 °F /  11 °C 29.77in /  1008hPa SSW 3.0mph /  4.8km/h 6.0mph /  9.7km/h 82% 0.00in /  0mm
22:49 57.1 °F /  13.9 °C 51.7 °F /  10.9 °C 29.77in /  1008hPa SSW 3.0mph /  4.8km/h 7.0mph /  11.3km/h 82% 0.00in /  0mm
22:54 57.1 °F /  13.9 °C 51.7 °F /  10.9 °C 29.76in /  1007.7hPa SSW 3.0mph /  4.8km/h 7.0mph /  11.3km/h 82% 0.00in /  0mm
22:59 57.3 °F /  14.1 °C 51.9 °F /  11.1 °C 29.76in /  1007.7hPa SSW 4.0mph /  6.4km/h 8.0mph /  12.9km/h 82% 0.00in /  0mm
23:04 57.3 °F /  14.1 °C 51.9 °F /  11.1 °C 29.76in /  1007.7hPa SSW 4.0mph /  6.4km/h 8.0mph /  12.9km/h 82% 0.00in /  0mm
23:09 57.4 °F /  14.1 °C 51.9 °F /  11.1 °C 29.76in /  1007.7hPa SSW 3.0mph /  4.8km/h 8.0mph /  12.9km/h 82% 0.00in /  0mm
23:14 57.5 °F /  14.2 °C 52.0 °F /  11.1 °C 29.76in /  1007.7hPa SW 5.0mph /  8km/h 10.0mph /  16.1km/h 82% 0.00in /  0mm
23:19 57.5 °F /  14.2 °C 51.7 °F /  10.9 °C 29.75in /  1007.3hPa SSW 4.0mph /  6.4km/h 10.0mph /  16.1km/h 81% 0.00in /  0mm
23:24 57.3 °F /  14.1 °C 51.9 °F /  11.1 °C 29.75in /  1007.3hPa SSW 5.0mph /  8km/h 8.0mph /  12.9km/h 82% 0.00in /  0mm
23:29 57.2 °F /  14 °C 51.8 °F /  11 °C 29.75in /  1007.3hPa West 4.0mph /  6.4km/h 8.0mph /  12.9km/h 82% 0.00in /  0mm
23:34 57.1 °F /  13.9 °C 51.7 °F /  10.9 °C 29.75in /  1007.3hPa SW 2.0mph /  3.2km/h 7.0mph /  11.3km/h 82% 0.00in /  0mm
23:39 57.1 °F /  13.9 °C 51.7 °F /  10.9 °C 29.75in /  1007.3hPa SW 2.0mph /  3.2km/h 8.0mph /  12.9km/h 82% 0.00in /  0mm
23:44 56.8 °F /  13.8 °C 51.4 °F /  10.8 °C 29.75in /  1007.3hPa SSW 3.0mph /  4.8km/h 7.0mph /  11.3km/h 82% 0.00in /  0mm
23:49 56.8 °F /  13.8 °C 51.7 °F /  10.9 °C 29.75in /  1007.3hPa SSW 3.0mph /  4.8km/h 7.0mph /  11.3km/h 83% 0.00in /  0mm
23:54 56.7 °F /  13.7 °C 51.6 °F /  10.9 °C 29.75in /  1007.3hPa South 2.0mph /  3.2km/h 6.0mph /  9.7km/h 83% 0.00in /  0mm
23:59 56.7 °F /  13.7 °C 51.6 °F /  10.9 °C 29.75in /  1007.3hPa SSW 3.0mph /  4.8km/h 5.0mph /  8km/h 83% 0.00in /  0mm
Buffalo, New York, USA
Compliments of Weather Underground - 2.5 mb